ETHN

Niederstetten Airport

Niederstetten, Germany
TAF ETHN 151000Z 1511/1520 28007KT 9999 NSW SCT030 BKN060
Issued Valid From Valid To
Aug-15 @ 10:00 UTC
(3 hours ago)
Aug-15 @ 11:00 UTC
(2 hours ago)
Aug-15 @ 20:00 UTC
(in 7 hours)
Aug-15 @ 11:00 to Aug-15 @ 20:00
TAF ETHN 151000Z 1511/1520 28007KT 9999 NSW SCT030 BKN060
Wind Visibility Clouds Conditions
280° at 7 knots 10,000+ meters
  • Scattered at 3,000' AGL
  • Broken at 6,000' AGL
TAF ETHN 151000Z 1511/1520 28007KT 9999 NSW SCT030 BKN060
Issued Aug-15 @ 10:00 UTC
(3 hours ago)
Valid From Aug-15 @ 11:00 UTC
(2 hours ago)
Valid To Aug-15 @ 20:00 UTC
(in 7 hours)
Aug-15 @ 11:00 - Aug-15 @ 20:00
Wind Visibility
280° at 7 knots 10,000+ meters
Clouds
  • Scattered at 3,000' AGL
  • Broken at 6,000' AGL
Conditions